Time,TemperatureF,DewpointF,PressureIn,WindDirection,WindDirectionDegrees,WindSpeedMPH,WindSpeedGustMPH,Humidity,HourlyPrecipIn,Conditions,Clouds,dailyrainin,SoftwareType,DateUTC
2013-07-19 00:11:00,77.6,75.0,30.04,ESE,115,0.0,0.0,92,0.00,,,0.01,weatherlink.com 1.10,2013-07-19 04:11:00,
2013-07-19 00:26:00,77.1,75.0,30.04,ESE,115,0.0,1.0,92,0.00,,,0.01,weatherlink.com 1.10,2013-07-19 04:26:00,
2013-07-19 00:41:00,77.0,75.0,30.04,ESE,114,0.0,1.0,92,0.00,,,0.01,weatherlink.com 1.10,2013-07-19 04:41:00,
2013-07-19 00:56:00,76.9,75.0,30.03,ESE,114,0.0,0.0,92,0.00,,,0.01,weatherlink.com 1.10,2013-07-19 04:56:00,
2013-07-19 01:41:00,75.9,74.0,30.02,ESE,115,0.0,0.0,94,0.00,,,0.00,weatherlink.com 1.10,2013-07-19 05:41:00,
2013-07-19 02:11:00,75.4,73.0,30.02,ESE,115,0.0,1.0,93,0.00,,,0.00,weatherlink.com 1.10,2013-07-19 06:11:00,
2013-07-19 02:41:00,74.8,73.0,30.01,ESE,114,0.0,0.0,93,0.00,,,0.00,weatherlink.com 1.10,2013-07-19 06:41:00,
2013-07-19 02:56:00,74.7,73.0,30.00,ESE,114,0.0,0.0,93,0.00,,,0.00,weatherlink.com 1.10,2013-07-19 06:56:00,
2013-07-19 03:11:00,74.3,73.0,30.01,ESE,114,0.0,0.0,94,0.00,,,0.00,weatherlink.com 1.10,2013-07-19 07:11:00,
2013-07-19 03:26:00,74.1,72.0,30.01,ESE,115,0.0,0.0,94,0.00,,,0.00,weatherlink.com 1.10,2013-07-19 07:26:00,
2013-07-19 03:41:00,73.9,72.0,30.01,ESE,115,0.0,1.0,94,0.00,,,0.00,weatherlink.com 1.10,2013-07-19 07:41:00,
2013-07-19 03:56:00,73.7,72.0,30.00,ESE,115,0.0,0.0,94,0.00,,,0.00,weatherlink.com 1.10,2013-07-19 07:56:00,
2013-07-19 04:11:00,73.5,72.0,30.00,ESE,115,0.0,1.0,94,0.00,,,0.00,weatherlink.com 1.10,2013-07-19 08:11:00,
2013-07-19 04:26:00,73.4,72.0,30.00,ESE,115,0.0,0.0,94,0.00,,,0.00,weatherlink.com 1.10,2013-07-19 08:26:00,
2013-07-19 04:41:00,73.2,71.0,30.00,ESE,115,0.0,1.0,94,0.00,,,0.00,weatherlink.com 1.10,2013-07-19 08:41:00,
2013-07-19 04:56:00,73.0,71.0,30.00,ESE,115,0.0,0.0,94,0.00,,,0.00,weatherlink.com 1.10,2013-07-19 08:56:00,
2013-07-19 05:11:00,72.8,71.0,30.00,ESE,115,0.0,0.0,94,0.00,,,0.00,weatherlink.com 1.10,2013-07-19 09:11:00,
2013-07-19 05:26:00,72.6,71.0,30.00,ESE,115,0.0,0.0,95,0.00,,,0.00,weatherlink.com 1.10,2013-07-19 09:26:00,
2013-07-19 05:41:00,72.6,71.0,30.01,ESE,114,0.0,0.0,95,0.00,,,0.00,weatherlink.com 1.10,2013-07-19 09:41:00,
2013-07-19 05:56:00,72.5,71.0,30.01,ESE,114,0.0,0.0,95,0.00,,,0.00,weatherlink.com 1.10,2013-07-19 09:56:00,
2013-07-19 06:11:00,72.5,71.0,30.01,ESE,114,0.0,0.0,95,0.00,,,0.00,weatherlink.com 1.10,2013-07-19 10:11:00,
2013-07-19 06:26:00,72.4,71.0,30.02,ESE,115,0.0,0.0,95,0.00,,,0.00,weatherlink.com 1.10,2013-07-19 10:26:00,
2013-07-19 06:56:00,72.2,71.0,30.03,ESE,115,0.0,0.0,95,0.00,,,0.00,weatherlink.com 1.10,2013-07-19 10:56:00,
2013-07-19 07:26:00,72.9,71.0,30.03,ESE,115,0.0,0.0,95,0.00,,,0.00,weatherlink.com 1.10,2013-07-19 11:26:00,
2013-07-19 07:41:00,73.3,72.0,30.03,ESE,115,0.0,0.0,95,0.00,,,0.00,weatherlink.com 1.10,2013-07-19 11:41:00,
2013-07-19 08:11:00,74.3,73.0,30.04,ESE,115,0.0,0.0,94,0.00,,,0.00,weatherlink.com 1.10,2013-07-19 12:11:00,
2013-07-19 08:27:00,75.3,73.0,30.04,ESE,115,0.0,0.0,93,0.00,,,0.00,weatherlink.com 1.10,2013-07-19 12:27:00,
2013-07-19 08:42:00,76.8,74.0,30.05,ESE,114,0.0,2.0,92,0.00,,,0.00,weatherlink.com 1.10,2013-07-19 12:42:00,
2013-07-19 08:57:00,78.1,75.0,30.05,ESE,115,0.0,2.0,89,0.00,,,0.00,weatherlink.com 1.10,2013-07-19 12:57:00,
2013-07-19 09:27:00,81.1,76.0,30.05,ESE,115,1.0,1.0,84,0.00,,,0.00,weatherlink.com 1.10,2013-07-19 13:27:00,
2013-07-19 09:42:00,82.9,77.0,30.05,ESE,115,1.0,2.0,81,0.00,,,0.00,weatherlink.com 1.10,2013-07-19 13:42:00,
2013-07-19 09:57:00,82.0,76.0,30.05,ESE,122,0.0,4.0,81,0.00,,,0.00,weatherlink.com 1.10,2013-07-19 13:57:00,
2013-07-19 10:12:00,84.0,76.0,30.05,SSW,207,1.0,5.0,77,0.00,,,0.00,weatherlink.com 1.10,2013-07-19 14:12:00,
2013-07-19 10:27:00,84.8,77.0,30.05,SSW,199,0.0,4.0,76,0.00,,,0.00,weatherlink.com 1.10,2013-07-19 14:27:00,
2013-07-19 10:42:00,85.7,76.0,30.05,SSW,196,0.0,7.0,72,0.00,,,0.00,weatherlink.com 1.10,2013-07-19 14:42:00,
2013-07-19 10:57:00,86.6,77.0,30.04,SSE,161,1.0,4.0,72,0.00,,,0.00,weatherlink.com 1.10,2013-07-19 14:57:00,
2013-07-19 11:12:00,87.3,76.0,30.04,SSE,147,3.0,5.0,69,0.00,,,0.00,weatherlink.com 1.10,2013-07-19 15:12:00,
2013-07-19 11:27:00,88.2,76.0,30.04,ESE,111,6.0,7.0,67,0.00,,,0.00,weatherlink.com 1.10,2013-07-19 15:27:00,
2013-07-19 11:42:00,88.9,76.0,30.04,SSW,200,1.0,7.0,65,0.00,,,0.00,weatherlink.com 1.10,2013-07-19 15:42:00,
2013-07-19 11:57:00,88.7,75.0,30.03,WNW,295,2.0,7.0,64,0.00,,,0.00,weatherlink.com 1.10,2013-07-19 15:57:00,
2013-07-19 12:12:00,88.8,76.0,30.03,West,276,1.0,6.0,65,0.00,,,0.00,weatherlink.com 1.10,2013-07-19 16:12:00,
2013-07-19 12:27:00,88.5,74.0,30.03,South,175,4.0,8.0,62,0.00,,,0.00,weatherlink.com 1.10,2013-07-19 16:27:00,
2013-07-19 12:57:00,90.4,74.0,30.01,ESE,110,4.0,6.0,59,0.00,,,0.00,weatherlink.com 1.10,2013-07-19 16:57:00,
2013-07-19 13:12:00,91.3,73.0,30.01,WNW,299,4.0,7.0,56,0.00,,,0.00,weatherlink.com 1.10,2013-07-19 17:12:00,
2013-07-19 13:42:00,90.0,73.0,30.00,SSW,192,0.0,6.0,57,0.00,,,0.00,weatherlink.com 1.10,2013-07-19 17:42:00,
2013-07-19 13:57:00,90.4,73.0,29.99,SSW,193,3.0,7.0,57,0.00,,,0.00,weatherlink.com 1.10,2013-07-19 17:57:00,
2013-07-19 14:43:00,91.3,73.0,29.97,WNW,298,0.0,6.0,55,0.00,,,0.00,weatherlink.com 1.10,2013-07-19 18:43:00,
2013-07-19 15:13:00,92.3,72.0,29.96,NW,316,0.0,4.0,52,0.00,,,0.00,weatherlink.com 1.10,2013-07-19 19:13:00,
2013-07-19 15:28:00,92.7,71.0,29.95,NNW,330,0.0,7.0,49,0.00,,,0.00,weatherlink.com 1.10,2013-07-19 19:28:00,
2013-07-19 15:43:00,93.5,71.0,29.94,ESE,111,1.0,4.0,48,0.00,,,0.00,weatherlink.com 1.10,2013-07-19 19:43:00,
2013-07-19 15:58:00,93.6,69.0,29.93,South,190,2.0,5.0,45,0.00,,,0.00,weatherlink.com 1.10,2013-07-19 19:58:00,
2013-07-19 16:13:00,94.0,70.0,29.93,ESE,107,3.0,4.0,45,0.00,,,0.00,weatherlink.com 1.10,2013-07-19 20:13:00,
2013-07-19 16:28:00,93.3,69.0,29.93,SSW,192,4.0,8.0,45,0.00,,,0.00,weatherlink.com 1.10,2013-07-19 20:28:00,
2013-07-19 16:43:00,93.7,69.0,29.92,NNE,15,0.0,5.0,45,0.00,,,0.00,weatherlink.com 1.10,2013-07-19 20:43:00,
2013-07-19 17:13:00,92.7,70.0,29.91,NW,317,4.0,8.0,48,0.00,,,0.00,weatherlink.com 1.10,2013-07-19 21:13:00,
2013-07-19 17:43:00,92.8,70.0,29.91,WSW,249,0.0,7.0,47,0.00,,,0.00,weatherlink.com 1.10,2013-07-19 21:43:00,
2013-07-19 17:58:00,92.7,70.0,29.91,South,184,2.0,5.0,47,0.00,,,0.00,weatherlink.com 1.10,2013-07-19 21:58:00,
2013-07-19 18:13:00,92.1,69.0,29.90,South,186,0.0,4.0,47,0.00,,,0.00,weatherlink.com 1.10,2013-07-19 22:13:00,
2013-07-19 18:28:00,91.8,70.0,29.90,South,179,5.0,5.0,49,0.00,,,0.00,weatherlink.com 1.10,2013-07-19 22:28:00,
2013-07-19 18:58:00,90.9,73.0,29.89,ESE,123,0.0,3.0,55,0.00,,,0.00,weatherlink.com 1.10,2013-07-19 22:58:00,
2013-07-19 19:13:00,90.8,71.0,29.89,SE,132,0.0,2.0,53,0.00,,,0.00,weatherlink.com 1.10,2013-07-19 23:13:00,
2013-07-19 19:28:00,89.9,72.0,29.89,West,281,1.0,2.0,56,0.00,,,0.00,weatherlink.com 1.10,2013-07-19 23:28:00,
2013-07-19 19:43:00,88.3,74.0,29.89,NW,306,0.0,2.0,62,0.00,,,0.00,weatherlink.com 1.10,2013-07-19 23:43:00,
2013-07-19 19:58:00,86.5,74.0,29.89,NW,306,0.0,1.0,67,0.00,,,0.00,weatherlink.com 1.10,2013-07-19 23:58:00,
2013-07-19 20:13:00,85.2,74.0,29.90,NW,306,0.0,1.0,69,0.00,,,0.00,weatherlink.com 1.10,2013-07-20 00:13:00,
2013-07-19 20:58:00,82.9,75.0,29.91,NW,306,0.0,1.0,76,0.00,,,0.00,weatherlink.com 1.10,2013-07-20 00:58:00,
2013-07-19 21:13:00,81.8,74.0,29.92,NW,306,0.0,0.0,78,0.00,,,0.00,weatherlink.com 1.10,2013-07-20 01:13:00,
2013-07-19 21:28:00,81.6,74.0,29.92,NW,306,0.0,1.0,78,0.00,,,0.00,weatherlink.com 1.10,2013-07-20 01:28:00,
2013-07-19 21:43:00,81.2,72.0,29.93,ESE,106,9.0,13.0,73,0.00,,,0.00,weatherlink.com 1.10,2013-07-20 01:43:00,
2013-07-19 21:58:00,75.9,70.0,29.94,ESE,106,10.0,17.0,83,0.03,,,0.03,weatherlink.com 1.10,2013-07-20 01:58:00,
2013-07-19 22:13:00,74.0,70.0,29.94,SE,130,1.0,8.0,88,0.10,,,0.10,weatherlink.com 1.10,2013-07-20 02:13:00,
2013-07-19 22:43:00,73.4,71.0,29.95,SE,128,0.0,2.0,93,0.11,,,0.11,weatherlink.com 1.10,2013-07-20 02:43:00,
2013-07-19 22:58:00,73.6,72.0,29.95,SE,128,0.0,0.0,94,0.07,,,0.11,weatherlink.com 1.10,2013-07-20 02:58:00,
2013-07-19 23:28:00,-999.0,-99.9,29.95,North,-999,-999.0,-999.0,-999,0.00,,,0.11,weatherlink.com 1.10,2013-07-20 03:28:00,
2013-07-19 23:43:00,-999.0,-99.9,29.96,North,-999,-999.0,-999.0,-999,0.00,,,0.11,weatherlink.com 1.10,2013-07-20 03:43:00,
2013-07-19 23:59:00,-999.0,-99.9,29.95,North,-999,-999.0,-999.0,-999,0.00,,,0.11,weatherlink.com 1.10,2013-07-20 03:59:00,